TFM - Tactical Decision Aid
ID: Runway Winds: CIG/VIS Threshold:

KTEB - Teterboro Arpt, NJ, US

Updated at: 1734 UTC 26 Oct 2021
Latest TAF at: 1729 UTC 26 Oct 2021

TAF Board

Time1651Z 26/18Z 26/19Z 26/20Z 26/21Z 26/22Z 26/23Z 27/00Z 27/01Z 27/02Z 27/03Z 27/04Z 27/05Z 27/06Z>>
Type OBS PRVL
  [TEMP]  
PRVL
  [TEMP]  
PRVL PRVL PRVL PRVL PRVL PRVL PRVL PRVL PRVL PRVL PRVL
VIS 10 6
  [5]  
6
  [5]  
5 5 5 3 3 3 3 3 3 3 3
CIG 10 15
  [15]  
15
  [15]  
9 9 9 7 7 7 7 9 9 9 9
Cover OVC BKN
  [BKN]  
BKN
  [BKN]  
BKN BKN BKN OVC OVC OVC OVC OVC OVC OVC OVC
FltCat MVFR MVFR
  [MVFR]  
MVFR
  [MVFR]  
IFR IFR IFR IFR IFR IFR IFR IFR IFR IFR IFR
WX -- -SHRA BR
  [-RA BR]  
-SHRA BR
  [-RA BR]  
-SHRA BR -SHRA BR -SHRA BR RA BR RA BR RA BR RA BR -RA BR -RA BR -RA BR -RA BR
WDir 150 170
[170]
170
[170]
100 100 100 360 360 360 360 350 350 350 350
WSpd 12 10
  [10]  
10
  [10]  
10 10 10 12 12 12 12 15 15 15 15
WGst -- --
  [--]  
--
  [--]  
-- -- -- -- -- -- -- 24 24 24 24

TDA Impact Legend

  None Marginal Slight Moderate High
Visibility (sm) >5 3≤X≤5 2≤X<3 0.5≤X<2 <0.5
Ceiling (100 ft) >30 10≤X≤30 8≤X<10 2≤X<8 <2
Wind Speed (kt) <15 15≤X<25 25≤X<30 ≥30
Wind Gust (kt) <15 15≤X<25 25≤X<35 ≥35
Weather No Wx Reported VCTS -TS,-FZRA TS,FZRA +TS,+FZRA
TAF
KTEB 261729Z 2618/2724 17010KT 6SM -SHRA BR SCT007 BKN015
  TEMPO 2618/2620 5SM -RA BR
  FM262000 10010KT 5SM -SHRA BR BKN009
  FM262300 36012KT 3SM RA BR BKN007 OVC012
  FM270300 35015G24KT 3SM -RA BR OVC009
  FM270800 35015G37KT P6SM VCSH SCT015 BKN025
  FM271700 35016G26KT P6SM VCSH BKN025


METAR
KTEB 261651Z 15012KT 10SM OVC010 14/13 A2932 RMK AO2 SLP930 T01440128
KTEB 261607Z 19010KT 10SM BR BKN012 BKN019 BKN038 15/13 A2932 RMK AO2 T01500133
KTEB 261558Z 18009KT 10SM BR FEW012 SCT019 BKN034 15/14 A2932 RMK AO2 T01500139
KTEB 261551Z 18009KT 6SM BR OVC008 15/14 A2932 RMK AO2 RAE20 SLP927 P0014 T01500139
KTEB 261526Z 20008KT 6SM BR OVC005 14/14 A2932 RMK AO2 RAE20 P0014 T01440139
KTEB 261458Z VRB04KT 2SM R06/2400VP6000FT +RA BR OVC005 15/14 A2933 RMK AO2 P0012 T01500139
KTEB 261451Z 00000KT 3SM R06/2400VP6000FT +RA BR OVC003 15/14 A2933 RMK AO2 SLP933 P0015 60043 T01500139 56033
KTEB 261442Z 00000KT 4SM R06/5000VP6000FT RA BR OVC003 15/14 A2934 RMK AO2 P0011 T01500139

Radar Display
Forecast Discussion